createdAt,value
2019-03-22T00:01:10.428Z,101987.00
2019-03-22T00:03:39.230Z,101974.00
2019-03-22T00:06:08.433Z,101979.00
2019-03-22T00:08:37.405Z,101971.00
2019-03-22T00:11:06.122Z,101975.00
2019-03-22T00:13:34.888Z,101978.00
2019-03-22T00:16:03.745Z,101969.00
2019-03-22T00:18:33.923Z,101965.00
2019-03-22T00:21:02.854Z,101967.00
2019-03-22T00:23:31.639Z,101967.00
2019-03-22T00:26:00.464Z,101973.00
2019-03-22T00:28:29.262Z,101969.00
2019-03-22T00:30:58.083Z,101969.00
2019-03-22T00:33:26.931Z,101965.00
2019-03-22T00:35:55.738Z,101966.00
2019-03-22T00:38:24.612Z,101960.00
2019-03-22T00:40:53.476Z,101958.00
2019-03-22T00:43:22.197Z,101959.00
2019-03-22T00:45:50.995Z,101954.00
2019-03-22T00:48:20.073Z,101953.00
2019-03-22T00:50:49.130Z,101953.00
2019-03-22T00:53:17.865Z,101951.00
2019-03-22T00:55:46.611Z,101948.00
2019-03-22T00:58:15.533Z,101942.00
2019-03-22T01:00:44.331Z,101951.00
2019-03-22T01:03:13.060Z,101945.00
2019-03-22T01:05:41.996Z,101936.00
2019-03-22T01:08:11.019Z,101945.00
2019-03-22T01:10:39.787Z,101945.00
2019-03-22T01:13:08.508Z,101931.00
2019-03-22T01:15:37.303Z,101941.00
2019-03-22T01:18:06.135Z,101940.00
2019-03-22T01:20:35.071Z,101939.00
2019-03-22T01:23:03.839Z,101943.00
2019-03-22T01:25:32.728Z,101935.00
2019-03-22T01:28:01.976Z,101937.00
2019-03-22T01:30:30.721Z,101942.00
2019-03-22T01:32:59.547Z,101931.00
2019-03-22T01:35:28.792Z,101936.00
2019-03-22T01:37:57.525Z,101939.00
2019-03-22T01:40:26.398Z,101944.00
2019-03-22T01:42:55.249Z,101932.00
2019-03-22T01:45:24.096Z,101944.00
2019-03-22T01:47:52.870Z,101941.00
2019-03-22T01:50:21.643Z,101940.00
2019-03-22T01:52:50.457Z,101939.00
2019-03-22T01:55:19.279Z,101942.00
2019-03-22T01:57:53.447Z,101941.00
2019-03-22T02:00:19.016Z,101949.00
2019-03-22T02:02:47.807Z,101935.00
2019-03-22T02:05:16.721Z,101932.00
2019-03-22T02:07:45.411Z,101944.00
2019-03-22T02:10:15.302Z,101938.00
2019-03-22T02:12:43.948Z,101938.00
2019-03-22T02:15:13.350Z,101947.00
2019-03-22T02:17:42.078Z,101945.00
2019-03-22T02:20:10.997Z,101944.00
2019-03-22T02:22:39.669Z,101940.00
2019-03-22T02:25:08.982Z,101945.00
2019-03-22T02:27:37.689Z,101942.00
2019-03-22T02:30:07.721Z,101954.00
2019-03-22T02:32:36.367Z,101942.00
2019-03-22T02:35:05.947Z,101940.00
2019-03-22T02:37:34.696Z,101935.00
2019-03-22T02:40:04.403Z,101932.00
2019-03-22T02:42:33.060Z,101925.00
2019-03-22T02:45:01.713Z,101928.00
2019-03-22T02:47:30.506Z,101923.00
2019-03-22T02:49:59.176Z,101923.00
2019-03-22T02:52:27.836Z,101917.00
2019-03-22T02:54:56.531Z,101925.00
2019-03-22T02:57:25.237Z,101928.00
2019-03-22T02:59:53.892Z,101926.00
2019-03-22T03:02:22.648Z,101930.00
2019-03-22T03:04:51.480Z,101928.00
2019-03-22T03:07:20.318Z,101929.00
2019-03-22T03:09:48.965Z,101926.00
2019-03-22T03:12:17.661Z,101924.00
2019-03-22T03:14:46.368Z,101915.00
2019-03-22T03:17:15.130Z,101920.00
2019-03-22T03:19:43.927Z,101916.00
2019-03-22T03:22:12.848Z,101913.00
2019-03-22T03:24:41.702Z,101923.00
2019-03-22T03:27:10.440Z,101913.00
2019-03-22T03:29:39.688Z,101904.00
2019-03-22T03:32:08.516Z,101920.00
2019-03-22T03:34:37.340Z,101922.00
2019-03-22T03:37:05.961Z,101925.00
2019-03-22T03:39:34.672Z,101925.00
2019-03-22T03:42:03.458Z,101925.00
2019-03-22T03:44:32.123Z,101920.00
2019-03-22T03:47:00.912Z,101926.00
2019-03-22T03:49:29.614Z,101916.00
2019-03-22T03:51:58.387Z,101913.00
2019-03-22T03:54:27.060Z,101912.00
2019-03-22T03:56:55.785Z,101916.00
2019-03-22T03:59:24.490Z,101912.00
2019-03-22T04:01:53.293Z,101912.00
2019-03-22T04:04:21.969Z,101903.00
2019-03-22T04:06:50.756Z,101903.00
2019-03-22T04:09:19.487Z,101905.00
2019-03-22T04:11:48.311Z,101910.00
2019-03-22T04:14:17.328Z,101904.00
2019-03-22T04:16:46.253Z,101906.00
2019-03-22T04:19:17.046Z,101908.00
2019-03-22T04:21:45.836Z,101902.00
2019-03-22T04:24:14.536Z,101902.00
2019-03-22T04:26:43.241Z,101899.00
2019-03-22T04:29:12.022Z,101901.00
2019-03-22T04:31:40.766Z,101890.00
2019-03-22T04:34:09.564Z,101895.00
2019-03-22T04:36:38.322Z,101898.00
2019-03-22T04:39:07.857Z,101888.00
2019-03-22T04:41:37.106Z,101884.00
2019-03-22T04:44:05.912Z,101882.00
2019-03-22T04:46:36.800Z,101890.00
2019-03-22T04:49:05.744Z,101891.00
2019-03-22T04:51:34.608Z,101892.00
2019-03-22T04:54:04.901Z,101894.00
2019-03-22T04:56:36.486Z,101890.00
2019-03-22T04:59:18.448Z,101893.00
2019-03-22T05:01:40.772Z,101895.00
2019-03-22T05:04:10.013Z,101902.00
2019-03-22T05:06:40.473Z,101896.00
2019-03-22T05:09:11.537Z,101902.00
2019-03-22T05:11:42.419Z,101910.00
2019-03-22T05:14:12.264Z,101908.00
2019-03-22T05:16:43.686Z,101910.00
2019-03-22T05:19:13.488Z,101914.00
2019-03-22T05:21:43.286Z,101917.00
2019-03-22T05:24:14.292Z,101919.00
2019-03-22T05:26:43.842Z,101917.00
2019-03-22T05:29:13.794Z,101917.00
2019-03-22T05:32:07.955Z,101922.00
2019-03-22T05:34:36.788Z,101922.00
2019-03-22T05:37:05.732Z,101932.00
2019-03-22T05:39:34.496Z,101933.00
2019-03-22T05:42:03.489Z,101817.00
2019-03-22T05:44:32.220Z,101939.00
2019-03-22T05:47:01.808Z,101951.00
2019-03-22T05:49:30.530Z,101945.00
2019-03-22T05:51:59.292Z,101951.00
2019-03-22T05:54:28.092Z,101958.00
2019-03-22T05:56:56.945Z,101961.00
2019-03-22T05:59:25.774Z,101950.00
2019-03-22T06:01:54.655Z,101957.00
2019-03-22T06:04:23.922Z,101962.00
2019-03-22T06:06:52.642Z,101959.00
2019-03-22T06:09:21.742Z,101963.00
2019-03-22T06:11:50.823Z,101957.00
2019-03-22T06:14:19.764Z,101965.00
2019-03-22T06:16:48.632Z,101965.00
2019-03-22T06:19:17.512Z,101969.00
2019-03-22T06:21:46.737Z,101975.00
2019-03-22T06:24:15.793Z,101975.00
2019-03-22T06:26:44.775Z,101976.00
2019-03-22T06:29:13.779Z,101970.00
2019-03-22T06:31:43.046Z,101980.00
2019-03-22T06:34:11.967Z,101977.00
2019-03-22T06:36:40.941Z,101982.00
2019-03-22T06:39:10.445Z,101984.00
2019-03-22T06:41:39.848Z,101976.00
2019-03-22T06:44:08.869Z,101979.00
2019-03-22T06:46:40.896Z,101981.00
2019-03-22T06:49:09.812Z,101980.00
2019-03-22T06:51:38.609Z,101980.00
2019-03-22T06:54:07.555Z,101979.00
2019-03-22T06:56:36.320Z,101976.00
2019-03-22T06:59:05.280Z,101980.00
2019-03-22T07:01:34.288Z,101986.00
2019-03-22T07:04:04.270Z,101987.00
2019-03-22T07:06:33.123Z,101995.00
2019-03-22T07:09:01.944Z,101993.00
2019-03-22T07:11:31.872Z,101990.00
2019-03-22T07:14:00.708Z,102008.00
2019-03-22T07:16:29.645Z,101995.00
2019-03-22T07:18:58.471Z,101995.00
2019-03-22T07:21:27.278Z,101996.00
2019-03-22T07:23:56.095Z,101993.00
2019-03-22T07:26:24.823Z,101999.00
2019-03-22T07:28:53.685Z,101988.00
2019-03-22T07:31:22.468Z,101994.00
2019-03-22T07:33:51.273Z,101991.00
2019-03-22T07:36:20.047Z,101989.00
2019-03-22T07:38:49.916Z,102007.00
2019-03-22T07:41:18.780Z,101990.00
2019-03-22T07:43:47.559Z,101984.00
2019-03-22T07:46:16.348Z,101986.00
2019-03-22T07:48:45.414Z,101991.00
2019-03-22T07:51:14.326Z,101986.00
2019-03-22T07:53:43.409Z,101981.00
2019-03-22T07:56:12.194Z,101986.00
2019-03-22T07:58:40.933Z,101975.00
2019-03-22T08:01:09.703Z,101982.00
2019-03-22T08:03:38.610Z,101981.00
2019-03-22T08:06:07.451Z,101990.00
2019-03-22T08:08:36.322Z,101978.00
2019-03-22T08:11:05.248Z,101979.00
2019-03-22T08:13:34.237Z,101968.00
2019-03-22T08:16:03.121Z,101961.00
2019-03-22T08:18:32.209Z,101977.00
2019-03-22T08:21:00.919Z,101975.00
2019-03-22T08:23:29.764Z,101975.00
2019-03-22T08:25:58.589Z,101973.00
2019-03-22T08:28:27.381Z,101972.00
2019-03-22T08:30:56.186Z,101963.00
2019-03-22T08:33:30.710Z,101966.00
2019-03-22T08:35:59.553Z,101959.00
2019-03-22T08:38:28.347Z,101961.00
2019-03-22T08:40:57.196Z,101957.00
2019-03-22T08:43:26.068Z,101969.00
2019-03-22T08:45:54.931Z,101961.00
2019-03-22T08:48:23.695Z,101958.00
2019-03-22T08:50:52.533Z,101952.00
2019-03-22T08:53:21.424Z,101952.00
2019-03-22T08:55:50.473Z,101960.00
2019-03-22T08:58:19.277Z,101964.00
2019-03-22T09:00:57.265Z,101959.00
2019-03-22T09:03:18.905Z,101963.00
2019-03-22T09:05:47.727Z,101962.00
2019-03-22T09:08:16.638Z,101962.00
2019-03-22T09:10:45.397Z,101963.00
2019-03-22T09:13:14.208Z,101955.00
2019-03-22T09:15:43.369Z,101960.00
2019-03-22T09:18:12.129Z,101955.00
2019-03-22T09:20:40.962Z,101952.00
2019-03-22T09:23:09.750Z,101959.00
2019-03-22T09:25:38.664Z,101956.00
2019-03-22T09:28:10.285Z,101956.00
2019-03-22T09:30:38.132Z,101952.00
2019-03-22T09:33:06.967Z,101950.00
2019-03-22T09:35:36.061Z,101940.00
2019-03-22T09:38:12.918Z,101941.00
2019-03-22T09:40:35.790Z,101942.00
2019-03-22T09:43:04.586Z,101928.00
2019-03-22T09:45:33.520Z,101933.00
2019-03-22T09:48:52.884Z,101930.00
2019-03-22T09:51:21.765Z,101927.00
2019-03-22T09:53:50.650Z,101916.00
2019-03-22T09:56:19.510Z,101916.00
2019-03-22T09:58:48.508Z,101909.00
2019-03-22T10:01:23.485Z,101905.00
2019-03-22T10:03:48.753Z,101905.00
2019-03-22T10:06:17.525Z,101906.00
2019-03-22T10:08:47.217Z,101897.00
2019-03-22T10:11:16.079Z,101905.00
2019-03-22T10:13:48.485Z,101902.00
2019-03-22T10:16:17.336Z,101899.00
2019-03-22T10:18:46.258Z,101904.00
2019-03-22T10:21:22.386Z,101897.00
2019-03-22T10:23:46.271Z,101899.00
2019-03-22T10:26:14.994Z,101893.00
2019-03-22T10:28:43.725Z,101889.00
2019-03-22T10:31:12.611Z,101895.00
2019-03-22T10:33:41.452Z,101898.00
2019-03-22T10:36:10.379Z,101884.00
2019-03-22T10:38:39.082Z,101886.00
2019-03-22T10:41:08.088Z,101886.00
2019-03-22T10:43:36.808Z,101885.00
2019-03-22T10:46:07.966Z,101887.00
2019-03-22T10:48:36.498Z,101878.00
2019-03-22T10:51:07.753Z,101877.00
2019-03-22T10:53:37.788Z,101875.00
2019-03-22T10:56:06.572Z,101879.00
2019-03-22T10:58:35.390Z,101872.00
2019-03-22T11:01:08.058Z,101876.00
2019-03-22T11:03:35.338Z,101870.00
2019-03-22T11:06:04.093Z,101863.00
2019-03-22T11:08:32.931Z,101858.00
2019-03-22T11:11:02.698Z,101871.00
2019-03-22T11:13:33.239Z,101857.00
2019-03-22T11:16:02.012Z,101858.00
2019-03-22T11:18:37.450Z,101858.00
2019-03-22T11:21:05.446Z,101853.00
2019-03-22T11:23:33.211Z,101848.00
2019-03-22T11:26:04.311Z,101852.00
2019-03-22T11:28:33.372Z,101850.00
2019-03-22T11:31:04.929Z,101848.00
2019-03-22T11:33:32.773Z,101840.00
2019-03-22T11:36:01.507Z,101849.00
2019-03-22T11:38:33.517Z,101831.00
2019-03-22T11:41:02.697Z,101834.00
2019-03-22T11:43:31.352Z,101829.00
2019-03-22T11:46:00.185Z,101834.00
2019-03-22T11:48:29.043Z,101822.00
2019-03-22T11:50:57.884Z,101821.00
2019-03-22T11:53:27.372Z,101823.00
2019-03-22T11:55:56.041Z,101820.00
2019-03-22T11:58:24.719Z,101821.00
2019-03-22T12:00:53.526Z,101823.00
2019-03-22T12:03:22.531Z,101823.00
2019-03-22T12:05:51.227Z,101817.00
2019-03-22T12:08:20.806Z,101820.00
2019-03-22T12:10:49.586Z,101814.00
2019-03-22T12:13:18.328Z,101807.00
2019-03-22T12:15:47.166Z,101808.00
2019-03-22T12:18:17.968Z,101812.00
2019-03-22T12:20:47.008Z,101802.00
2019-03-22T12:23:15.795Z,101794.00
2019-03-22T12:25:48.072Z,101796.00
2019-03-22T12:28:16.882Z,101799.00
2019-03-22T12:30:45.855Z,101789.00
2019-03-22T12:33:35.494Z,101785.00
2019-03-22T12:36:04.627Z,101779.00
2019-03-22T12:38:33.603Z,101776.00
2019-03-22T12:41:04.635Z,101777.00
2019-03-22T12:43:34.256Z,101782.00
2019-03-22T12:46:03.441Z,101772.00
2019-03-22T12:48:32.134Z,101769.00
2019-03-22T12:51:00.951Z,101757.00
2019-03-22T12:53:29.678Z,101754.00
2019-03-22T12:55:58.487Z,101752.00
2019-03-22T12:58:28.306Z,101754.00
2019-03-22T13:04:39.997Z,101741.00
2019-03-22T13:07:09.229Z,101728.00
2019-03-22T13:09:37.989Z,101739.00
2019-03-22T13:12:06.785Z,101723.00
2019-03-22T13:14:37.961Z,101709.00
2019-03-22T13:17:06.812Z,101718.00
2019-03-22T13:19:35.830Z,101717.00
2019-03-22T13:22:04.753Z,101716.00
2019-03-22T13:24:33.570Z,101709.00
2019-03-22T13:27:02.500Z,101700.00
2019-03-22T13:29:33.026Z,101698.00
2019-03-22T13:32:02.845Z,101683.00
2019-03-22T13:34:31.836Z,101691.00
2019-03-22T13:37:00.622Z,101683.00
2019-03-22T13:39:30.704Z,101684.00
2019-03-22T13:41:59.761Z,101679.00
2019-03-22T13:44:28.612Z,101679.00
2019-03-22T13:46:57.939Z,101660.00
2019-03-22T13:49:26.883Z,101671.00
2019-03-22T13:51:56.476Z,101655.00
2019-03-22T13:54:25.386Z,101663.00
2019-03-22T13:56:54.551Z,101660.00
2019-03-22T13:59:23.452Z,101652.00
2019-03-22T14:01:52.811Z,101641.00
2019-03-22T14:04:22.337Z,101642.00
2019-03-22T14:06:51.318Z,101641.00
2019-03-22T14:09:20.269Z,101638.00
2019-03-22T14:11:49.128Z,101632.00
2019-03-22T14:14:18.474Z,101629.00
2019-03-22T14:16:47.208Z,101628.00
2019-03-22T14:19:16.129Z,101626.00
2019-03-22T14:21:44.940Z,101625.00
2019-03-22T14:24:15.540Z,101626.00
2019-03-22T14:26:44.419Z,101619.00
2019-03-22T14:29:13.442Z,101607.00
2019-03-22T14:31:42.720Z,101605.00
2019-03-22T14:34:13.087Z,101606.00
2019-03-22T14:36:41.926Z,101599.00
2019-03-22T14:39:10.668Z,101597.00
2019-03-22T14:41:39.577Z,101598.00
2019-03-22T14:44:08.857Z,101599.00
2019-03-22T14:46:38.057Z,101600.00
2019-03-22T14:49:06.944Z,101584.00
2019-03-22T14:51:35.941Z,101589.00
2019-03-22T14:54:07.775Z,101577.00
2019-03-22T14:56:36.668Z,101583.00
2019-03-22T14:59:05.471Z,101579.00
2019-03-22T15:01:34.441Z,101574.00
2019-03-22T15:04:03.224Z,101582.00
2019-03-22T15:06:32.148Z,101578.00
2019-03-22T15:09:00.920Z,101570.00
2019-03-22T15:11:29.913Z,101579.00
2019-03-22T15:14:04.921Z,101569.00
2019-03-22T15:17:02.211Z,101572.00
2019-03-22T15:20:06.851Z,101565.00
2019-03-22T15:22:59.227Z,101560.00
2019-03-22T15:25:54.483Z,101560.00
2019-03-22T15:28:57.869Z,101559.00
2019-03-22T15:31:43.486Z,101559.00
2019-03-22T15:34:30.476Z,101561.00
2019-03-22T15:37:17.674Z,101560.00
2019-03-22T15:40:02.279Z,101555.00
2019-03-22T15:42:31.505Z,101551.00
2019-03-22T15:45:00.705Z,101553.00
2019-03-22T15:47:31.173Z,101546.00
2019-03-22T15:50:03.143Z,101550.00
2019-03-22T15:52:32.973Z,101542.00
2019-03-22T15:55:02.069Z,101541.00
2019-03-22T15:57:31.247Z,101542.00
2019-03-22T16:00:00.354Z,101540.00
2019-03-22T16:02:29.358Z,101537.00
2019-03-22T16:04:58.490Z,101540.00
2019-03-22T16:07:27.408Z,101536.00
2019-03-22T16:09:56.579Z,101533.00
2019-03-22T16:12:25.534Z,101541.00
2019-03-22T16:14:55.287Z,101542.00
2019-03-22T16:17:24.143Z,101539.00
2019-03-22T16:19:53.286Z,101526.00
2019-03-22T16:22:24.010Z,101534.00
2019-03-22T16:24:52.860Z,101532.00
2019-03-22T16:27:21.707Z,101533.00
2019-03-22T16:29:50.589Z,101526.00
2019-03-22T16:32:19.579Z,101531.00
2019-03-22T16:34:48.521Z,101532.00
2019-03-22T16:37:17.409Z,101529.00
2019-03-22T16:39:47.267Z,101530.00
2019-03-22T16:42:16.258Z,101533.00
2019-03-22T16:44:46.166Z,101530.00
2019-03-22T16:47:15.090Z,101526.00
2019-03-22T16:49:43.836Z,101529.00
2019-03-22T16:52:12.773Z,101530.00
2019-03-22T16:54:41.649Z,101529.00
2019-03-22T16:57:10.588Z,101521.00
2019-03-22T16:59:39.371Z,101520.00
2019-03-22T17:02:08.637Z,101526.00
2019-03-22T17:04:38.866Z,101528.00
2019-03-22T17:07:07.853Z,101532.00
2019-03-22T17:09:37.754Z,101529.00
2019-03-22T17:12:09.505Z,101522.00
2019-03-22T17:14:38.311Z,101518.00
2019-03-22T17:17:07.129Z,101523.00
2019-03-22T17:19:35.961Z,101519.00
2019-03-22T17:22:04.891Z,101526.00
2019-03-22T17:24:33.867Z,101528.00
2019-03-22T17:27:03.052Z,101524.00
2019-03-22T17:29:31.999Z,101524.00
2019-03-22T17:32:01.026Z,101535.00
2019-03-22T17:34:30.045Z,101527.00
2019-03-22T17:36:58.879Z,101526.00
2019-03-22T17:39:27.798Z,101526.00
2019-03-22T17:41:56.658Z,101517.00
2019-03-22T17:44:25.603Z,101529.00
2019-03-22T17:46:54.416Z,101529.00
2019-03-22T17:49:23.571Z,101530.00
2019-03-22T17:51:53.684Z,101525.00
2019-03-22T17:54:22.819Z,101530.00
2019-03-22T17:56:51.618Z,101532.00
2019-03-22T17:59:20.527Z,101522.00
2019-03-22T18:01:49.644Z,101527.00
2019-03-22T18:04:24.304Z,101529.00
2019-03-22T18:06:51.567Z,101526.00
2019-03-22T18:09:20.648Z,101534.00
2019-03-22T18:11:49.672Z,101528.00
2019-03-22T18:14:19.137Z,101525.00
2019-03-22T18:16:48.187Z,101527.00
2019-03-22T18:19:17.296Z,101523.00
2019-03-22T18:21:46.383Z,101533.00
2019-03-22T18:24:15.341Z,101533.00
2019-03-22T18:26:44.191Z,101528.00
2019-03-22T18:29:13.185Z,101531.00
2019-03-22T18:31:41.972Z,101540.00
2019-03-22T18:34:10.807Z,101542.00
2019-03-22T18:36:39.823Z,101537.00
2019-03-22T18:39:09.267Z,101543.00
2019-03-22T18:41:38.470Z,101541.00
2019-03-22T18:44:07.288Z,101544.00
2019-03-22T18:46:36.165Z,101547.00
2019-03-22T18:49:04.947Z,101555.00
2019-03-22T18:51:33.813Z,101546.00
2019-03-22T18:54:03.017Z,101548.00
2019-03-22T18:56:32.112Z,101553.00
2019-03-22T18:59:01.530Z,101554.00
2019-03-22T19:01:30.659Z,101552.00
2019-03-22T19:03:59.779Z,101561.00
2019-03-22T19:06:29.106Z,101563.00
2019-03-22T19:08:58.059Z,101553.00
2019-03-22T19:11:27.175Z,101554.00
2019-03-22T19:13:56.211Z,101557.00
2019-03-22T19:16:25.052Z,101550.00
2019-03-22T19:18:54.133Z,101553.00
2019-03-22T19:21:22.975Z,101544.00
2019-03-22T19:23:51.781Z,101546.00
2019-03-22T19:26:20.656Z,101544.00
2019-03-22T19:28:49.553Z,101544.00
2019-03-22T19:31:18.556Z,101541.00
2019-03-22T19:33:47.446Z,101539.00
2019-03-22T19:36:16.473Z,101536.00
2019-03-22T19:38:45.503Z,101543.00
2019-03-22T19:41:14.386Z,101542.00
2019-03-22T19:43:43.251Z,101543.00
2019-03-22T19:46:12.365Z,101544.00
2019-03-22T19:48:41.185Z,101531.00
2019-03-22T19:51:10.103Z,101541.00
2019-03-22T19:53:40.021Z,101533.00
2019-03-22T19:56:09.246Z,101537.00
2019-03-22T19:58:38.117Z,101530.00
2019-03-22T20:01:07.017Z,101528.00
2019-03-22T20:03:36.020Z,101534.00
2019-03-22T20:06:05.008Z,101540.00
2019-03-22T20:08:34.785Z,101533.00
2019-03-22T20:11:03.743Z,101531.00
2019-03-22T20:13:33.716Z,101534.00
2019-03-22T20:16:02.767Z,101530.00
2019-03-22T20:18:31.742Z,101538.00
2019-03-22T20:21:00.793Z,101533.00
2019-03-22T20:23:29.872Z,101534.00
2019-03-22T20:25:58.922Z,101528.00
2019-03-22T20:28:30.478Z,101529.00
2019-03-22T20:30:59.604Z,101535.00
2019-03-22T20:33:28.614Z,101534.00
2019-03-22T20:35:57.752Z,101539.00
2019-03-22T20:38:27.360Z,101542.00
2019-03-22T20:40:56.641Z,101541.00
2019-03-22T20:43:25.848Z,101540.00
2019-03-22T20:45:54.815Z,101541.00
2019-03-22T20:48:23.788Z,101534.00
2019-03-22T20:50:53.254Z,101541.00
2019-03-22T20:53:22.401Z,101544.00
2019-03-22T20:55:51.614Z,101548.00
2019-03-22T20:58:20.568Z,101553.00
2019-03-22T21:00:49.428Z,101548.00
2019-03-22T21:03:18.441Z,101541.00
2019-03-22T21:05:47.927Z,101555.00
2019-03-22T21:08:17.014Z,101542.00
2019-03-22T21:10:45.948Z,101544.00
2019-03-22T21:13:14.889Z,101542.00
2019-03-22T21:15:43.932Z,101546.00
2019-03-22T21:18:12.809Z,101542.00
2019-03-22T21:20:41.864Z,101546.00
2019-03-22T21:23:10.675Z,101537.00
2019-03-22T21:25:39.556Z,101540.00
2019-03-22T21:28:09.441Z,101533.00
2019-03-22T21:30:38.350Z,101531.00
2019-03-22T21:33:07.298Z,101530.00
2019-03-22T21:35:37.793Z,101532.00
2019-03-22T21:38:10.999Z,101532.00
2019-03-22T21:40:37.936Z,101529.00
2019-03-22T21:43:06.768Z,101531.00
2019-03-22T21:45:38.239Z,101530.00
2019-03-22T21:48:07.170Z,101526.00
2019-03-22T21:50:36.277Z,101524.00
2019-03-22T21:53:07.196Z,101523.00
2019-03-22T21:55:36.314Z,101524.00
2019-03-22T21:58:05.550Z,101525.00
2019-03-22T22:00:34.600Z,101524.00
2019-03-22T22:03:13.321Z,101522.00
2019-03-22T22:05:47.931Z,101519.00
2019-03-22T22:08:17.154Z,101518.00
2019-03-22T22:10:59.306Z,101517.00
2019-03-22T22:13:21.958Z,101516.00
2019-03-22T22:15:51.561Z,101521.00
2019-03-22T22:18:21.255Z,101512.00
2019-03-22T22:20:51.334Z,101509.00
2019-03-22T22:23:24.341Z,101515.00
2019-03-22T22:25:54.451Z,101515.00
2019-03-22T22:28:23.572Z,101518.00
2019-03-22T22:30:53.310Z,101508.00
2019-03-22T22:33:23.213Z,101510.00
2019-03-22T22:35:58.587Z,101517.00
2019-03-22T22:38:22.959Z,101510.00
2019-03-22T22:40:51.874Z,101508.00
2019-03-22T22:43:20.741Z,101503.00
2019-03-22T22:45:49.610Z,101511.00
2019-03-22T22:48:18.719Z,101516.00
2019-03-22T22:50:47.585Z,101503.00
2019-03-22T22:53:16.477Z,101508.00
2019-03-22T22:55:45.378Z,101509.00
2019-03-22T22:58:14.343Z,101508.00
2019-03-22T23:00:43.511Z,101506.00
2019-03-22T23:03:12.555Z,101502.00
2019-03-22T23:05:41.523Z,101505.00
2019-03-22T23:08:10.447Z,101514.00
2019-03-22T23:10:40.545Z,101506.00
2019-03-22T23:13:09.470Z,101509.00
2019-03-22T23:15:38.253Z,101504.00
2019-03-22T23:18:07.449Z,101505.00
2019-03-22T23:20:36.249Z,101518.00
2019-03-22T23:23:05.220Z,101520.00
2019-03-22T23:25:34.080Z,101502.00
2019-03-22T23:28:05.749Z,101510.00
2019-03-22T23:30:34.765Z,101508.00
2019-03-22T23:33:03.550Z,101506.00
2019-03-22T23:35:32.427Z,101505.00
2019-03-22T23:38:01.369Z,101506.00
2019-03-22T23:40:30.655Z,101508.00
2019-03-22T23:42:59.749Z,101498.00
2019-03-22T23:45:28.657Z,101494.00
2019-03-22T23:47:58.054Z,101501.00
2019-03-22T23:50:27.078Z,101505.00
2019-03-22T23:52:55.914Z,101489.00
2019-03-22T23:55:24.693Z,101505.00
2019-03-22T23:57:53.522Z,101505.00
